createdAt,value
2022-10-23T00:00:58.957Z,101281.50
2022-10-23T00:03:40.138Z,101288.16
2022-10-23T00:06:14.817Z,101284.06
2022-10-23T00:08:48.938Z,101285.44
2022-10-23T00:11:24.397Z,101284.72
2022-10-23T00:13:59.137Z,101291.94
2022-10-23T00:16:32.303Z,101293.13
2022-10-23T00:19:04.698Z,101295.81
2022-10-23T00:21:39.677Z,101300.28
2022-10-23T00:24:12.712Z,101300.91
2022-10-23T00:26:45.118Z,101310.38
2022-10-23T00:29:17.426Z,101309.03
2022-10-23T00:31:49.319Z,101317.50
2022-10-23T00:34:21.697Z,101313.50
2022-10-23T00:36:56.118Z,101315.25
2022-10-23T00:39:28.599Z,101312.91
2022-10-23T00:42:00.456Z,101309.22
2022-10-23T00:45:05.523Z,101310.28
2022-10-23T00:47:37.437Z,101307.69
2022-10-23T00:50:10.546Z,101314.25
2022-10-23T00:52:50.078Z,101314.06
2022-10-23T00:55:24.537Z,101312.59
2022-10-23T00:57:56.960Z,101318.53
2022-10-23T01:00:45.620Z,101316.09
2022-10-23T01:03:18.904Z,101319.69
2022-10-23T01:05:56.698Z,101320.66
2022-10-23T01:08:38.938Z,101311.53
2022-10-23T01:11:16.376Z,101313.75
2022-10-23T01:13:57.857Z,101320.00
2022-10-23T01:16:37.929Z,101311.16
2022-10-23T01:19:18.037Z,101311.22
2022-10-23T01:21:58.956Z,101310.84
2022-10-23T01:24:51.877Z,101325.94
2022-10-23T01:27:30.141Z,101316.81
2022-10-23T01:30:09.277Z,101315.84
2022-10-23T01:32:51.017Z,101320.78
2022-10-23T01:35:26.479Z,101326.00
2022-10-23T01:38:04.718Z,101322.25
2022-10-23T01:40:41.298Z,101321.84
2022-10-23T01:43:21.298Z,101329.50
2022-10-23T01:45:58.358Z,101319.88
2022-10-23T01:48:33.518Z,101319.72
2022-10-23T01:51:09.558Z,101329.19
2022-10-23T01:53:46.876Z,101330.91
2022-10-23T01:56:23.416Z,101319.56
2022-10-23T01:59:02.138Z,101327.00
2022-10-23T02:01:38.197Z,101318.06
2022-10-23T02:04:13.977Z,101322.13
2022-10-23T02:06:46.338Z,101318.78
2022-10-23T02:09:18.897Z,101319.06
2022-10-23T02:11:57.778Z,101313.31
2022-10-23T02:14:52.439Z,101310.50
2022-10-23T02:17:33.545Z,101313.38
2022-10-23T02:20:17.197Z,101321.94
2022-10-23T02:22:59.117Z,101312.94
2022-10-23T02:25:38.404Z,101308.53
2022-10-23T02:28:18.436Z,101317.13
2022-10-23T02:30:53.878Z,101309.16
2022-10-23T02:33:27.717Z,101307.16
2022-10-23T02:36:00.376Z,101307.34
2022-10-23T02:38:40.858Z,101311.13
2022-10-23T02:41:41.618Z,101311.91
2022-10-23T02:44:28.778Z,101310.50
2022-10-23T02:47:19.538Z,101305.50
2022-10-23T02:50:00.917Z,101303.34
2022-10-23T02:52:40.518Z,101309.09
2022-10-23T02:55:25.379Z,101309.78
2022-10-23T02:58:10.659Z,101312.31
2022-10-23T03:00:49.598Z,101313.81
2022-10-23T03:03:30.439Z,101302.06
2022-10-23T03:06:02.739Z,101306.47
2022-10-23T03:08:44.878Z,101310.38
2022-10-23T03:11:17.159Z,101294.84
2022-10-23T03:13:49.657Z,101301.59
2022-10-23T03:16:21.897Z,101307.53
2022-10-23T03:18:57.057Z,101306.88
2022-10-23T03:21:29.059Z,101308.22
2022-10-23T03:24:01.539Z,101299.94
2022-10-23T03:26:33.618Z,101299.28
2022-10-23T03:29:06.218Z,101306.84
2022-10-23T03:31:38.376Z,101317.50
2022-10-23T03:34:15.259Z,101306.53
2022-10-23T03:36:47.436Z,101311.78
2022-10-23T03:39:20.657Z,101307.72
2022-10-23T03:41:52.683Z,101308.53
2022-10-23T03:44:25.059Z,101316.81
2022-10-23T03:46:57.298Z,101312.78
2022-10-23T03:49:32.538Z,101315.31
2022-10-23T03:52:04.820Z,101314.97
2022-10-23T03:54:37.418Z,101320.06
2022-10-23T03:57:09.438Z,101325.44
2022-10-23T03:59:41.937Z,101329.84
2022-10-23T04:02:14.221Z,101322.75
2022-10-23T04:04:51.179Z,101317.34
2022-10-23T04:07:23.099Z,101320.53
2022-10-23T04:09:55.239Z,101323.22
2022-10-23T04:12:27.598Z,101321.56
2022-10-23T04:15:00.083Z,101325.59
2022-10-23T04:17:32.202Z,101313.78
2022-10-23T04:20:07.406Z,101312.78
2022-10-23T04:22:39.159Z,101304.00
2022-10-23T04:25:27.658Z,101320.34
2022-10-23T04:28:11.618Z,101316.97
2022-10-23T04:30:43.621Z,101306.69
2022-10-23T04:33:15.417Z,101306.84
2022-10-23T04:35:50.378Z,101308.69
2022-10-23T04:38:22.277Z,101303.47
2022-10-23T04:40:54.318Z,101299.44
2022-10-23T04:43:25.987Z,101302.97
2022-10-23T04:45:58.198Z,101318.31
2022-10-23T04:48:29.838Z,101316.28
2022-10-23T04:51:07.317Z,101312.41
2022-10-23T04:53:39.598Z,101312.06
2022-10-23T04:56:16.358Z,101309.53
2022-10-23T04:58:48.139Z,101319.66
2022-10-23T05:01:20.397Z,101317.41
2022-10-23T05:03:54.337Z,101314.88
2022-10-23T05:06:29.125Z,101310.16
2022-10-23T05:09:00.938Z,101312.69
2022-10-23T05:11:33.217Z,101310.19
2022-10-23T05:14:05.117Z,101305.63
2022-10-23T05:16:42.798Z,101307.13
2022-10-23T05:19:24.270Z,101299.38
2022-10-23T05:22:00.117Z,101302.94
2022-10-23T05:24:32.298Z,101313.75
2022-10-23T05:27:04.399Z,101317.63
2022-10-23T05:29:36.318Z,101311.56
2022-10-23T05:32:11.257Z,101308.69
2022-10-23T05:34:43.858Z,101312.06
2022-10-23T05:37:20.299Z,101315.25
2022-10-23T05:39:52.358Z,101315.91
2022-10-23T05:42:24.298Z,101322.03
2022-10-23T05:44:58.256Z,101317.47
2022-10-23T05:47:31.856Z,101320.00
2022-10-23T05:50:03.479Z,101323.19
2022-10-23T05:52:38.317Z,101335.13
2022-10-23T05:55:10.898Z,101325.00
2022-10-23T05:57:43.221Z,101322.16
2022-10-23T06:00:16.376Z,101327.88
2022-10-23T06:02:48.759Z,101326.72
2022-10-23T06:05:20.929Z,101324.03
2022-10-23T06:07:56.178Z,101320.50
2022-10-23T06:10:28.525Z,101312.75
2022-10-23T06:13:01.079Z,101311.72
2022-10-23T06:15:33.140Z,101321.00
2022-10-23T06:18:05.638Z,101318.13
2022-10-23T06:20:40.398Z,101316.31
2022-10-23T06:23:15.517Z,101317.81
2022-10-23T06:26:02.958Z,101320.34
2022-10-23T06:28:35.417Z,101319.81
2022-10-23T06:31:09.079Z,101316.47
2022-10-23T06:33:41.967Z,101317.47
2022-10-23T06:36:14.298Z,101308.88
2022-10-23T06:38:49.855Z,101312.94
2022-10-23T06:41:24.520Z,101309.72
2022-10-23T06:43:56.919Z,101309.56
2022-10-23T06:46:33.336Z,101315.66
2022-10-23T06:49:05.858Z,101323.75
2022-10-23T06:51:38.098Z,101323.91
2022-10-23T06:54:14.737Z,101334.69
2022-10-23T06:56:47.037Z,101334.19
2022-10-23T06:59:19.818Z,101338.25
2022-10-23T07:01:52.140Z,101339.09
2022-10-23T07:04:24.598Z,101346.38
2022-10-23T07:06:59.118Z,101329.47
2022-10-23T07:09:34.519Z,101329.47
2022-10-23T07:12:06.901Z,101321.72
2022-10-23T07:14:39.457Z,101318.69
2022-10-23T07:17:11.577Z,101337.38
2022-10-23T07:19:43.978Z,101335.25
2022-10-23T07:22:16.316Z,101336.47
2022-10-23T07:24:51.717Z,101336.91
2022-10-23T07:27:23.799Z,101337.09
2022-10-23T07:29:56.643Z,101340.41
2022-10-23T07:32:28.919Z,101331.13
2022-10-23T07:35:02.454Z,101337.84
2022-10-23T07:37:34.698Z,101334.84
2022-10-23T07:40:12.579Z,101337.56
2022-10-23T07:42:44.938Z,101334.25
2022-10-23T07:45:50.919Z,101334.50
2022-10-23T07:48:24.281Z,101329.78
2022-10-23T07:50:57.217Z,101333.72
2022-10-23T07:53:30.178Z,101330.47
2022-10-23T07:56:07.717Z,101331.56
2022-10-23T07:58:39.858Z,101332.69
2022-10-23T08:01:20.979Z,101321.72
2022-10-23T08:03:53.098Z,101327.88
2022-10-23T08:06:25.799Z,101328.25
2022-10-23T08:08:59.920Z,101328.72
2022-10-23T08:11:38.480Z,101329.16
2022-10-23T08:14:11.476Z,101328.59
2022-10-23T08:16:44.220Z,101321.34
2022-10-23T08:19:16.757Z,101327.81
2022-10-23T08:21:49.338Z,101316.97
2022-10-23T08:24:21.597Z,101316.50
2022-10-23T08:26:56.918Z,101322.78
2022-10-23T08:29:29.197Z,101333.56
2022-10-23T08:32:01.717Z,101329.78
2022-10-23T08:34:53.196Z,101334.19
2022-10-23T08:37:25.846Z,101331.94
2022-10-23T08:39:58.459Z,101326.44
2022-10-23T08:42:33.759Z,101315.75
2022-10-23T08:45:14.943Z,101316.72
2022-10-23T08:47:51.638Z,101311.97
2022-10-23T08:53:28.597Z,101318.94
2022-10-23T08:56:05.478Z,101313.72
2022-10-23T08:58:46.741Z,101325.84
2022-10-23T09:01:34.858Z,101317.25
2022-10-23T09:04:32.039Z,101319.56
2022-10-23T09:07:13.580Z,101319.31
2022-10-23T09:09:58.496Z,101313.94
2022-10-23T09:12:34.339Z,101315.69
2022-10-23T09:15:18.358Z,101313.84
2022-10-23T09:17:59.938Z,101305.81
2022-10-23T09:20:37.837Z,101300.09
2022-10-23T09:23:17.999Z,101297.22
2022-10-23T09:25:57.280Z,101294.84
2022-10-23T09:29:22.238Z,101302.00
2022-10-23T09:32:43.382Z,101288.53
2022-10-23T09:35:24.859Z,101294.00
2022-10-23T09:38:23.640Z,101292.75
2022-10-23T09:40:56.819Z,101301.50
2022-10-23T09:43:29.738Z,101292.19
2022-10-23T09:46:05.597Z,101295.81
2022-10-23T09:48:45.538Z,101296.47
2022-10-23T09:51:22.158Z,101289.25
2022-10-23T09:53:57.645Z,101289.72
2022-10-23T09:56:34.179Z,101291.91
2022-10-23T09:59:09.957Z,101288.78
2022-10-23T10:01:51.684Z,101283.53
2022-10-23T10:04:35.639Z,101290.25
2022-10-23T10:07:19.198Z,101279.94
2022-10-23T10:09:52.645Z,101276.47
2022-10-23T10:12:42.388Z,101276.50
2022-10-23T10:15:23.520Z,101279.25
2022-10-23T10:18:08.478Z,101277.03
2022-10-23T10:21:05.795Z,101264.47
2022-10-23T10:23:49.328Z,101262.44
2022-10-23T10:26:34.231Z,101272.34
2022-10-23T10:29:19.870Z,101249.22
2022-10-23T10:32:02.549Z,101257.22
2022-10-23T10:34:43.330Z,101254.25
2022-10-23T10:37:43.895Z,101264.16
2022-10-23T10:40:28.066Z,101255.44
2022-10-23T10:43:19.743Z,101243.81
2022-10-23T10:45:56.804Z,101249.38
2022-10-23T10:48:50.564Z,101244.28
2022-10-23T10:51:31.665Z,101241.38
2022-10-23T10:54:27.272Z,101242.28
2022-10-23T10:57:02.987Z,101242.53
2022-10-23T10:59:42.925Z,101233.66
2022-10-23T11:02:29.263Z,101231.22
2022-10-23T11:05:09.323Z,101227.66
2022-10-23T11:07:46.562Z,101224.00
2022-10-23T11:10:23.102Z,101214.69
2022-10-23T11:12:55.729Z,101216.22
2022-10-23T11:15:32.522Z,101199.56
2022-10-23T11:18:10.044Z,101201.25
2022-10-23T11:21:09.225Z,101199.72
2022-10-23T11:24:01.169Z,101187.34
2022-10-23T11:26:51.730Z,101192.34
2022-10-23T11:29:47.944Z,101184.22
2022-10-23T11:32:53.144Z,101179.19
2022-10-23T11:35:42.096Z,101167.81
2022-10-23T11:38:21.635Z,101173.94
2022-10-23T11:40:57.110Z,101171.25
2022-10-23T11:43:34.635Z,101164.94
2022-10-23T11:46:32.914Z,101162.69
2022-10-23T11:49:06.638Z,101167.91
2022-10-23T11:52:05.354Z,101153.56
2022-10-23T11:55:06.075Z,101145.44
2022-10-23T11:57:38.277Z,101142.97
2022-10-23T12:00:28.057Z,101130.81
2022-10-23T12:03:25.493Z,101140.53
2022-10-23T12:06:05.137Z,101135.47
2022-10-23T12:08:41.876Z,101134.00
2022-10-23T12:11:33.263Z,101130.59
2022-10-23T12:14:05.619Z,101127.91
2022-10-23T12:16:43.422Z,101126.84
2022-10-23T12:19:24.197Z,101129.28
2022-10-23T12:22:00.601Z,101119.41
2022-10-23T12:24:47.455Z,101116.66
2022-10-23T12:27:36.757Z,101106.59
2022-10-23T12:30:22.874Z,101100.78
2022-10-23T12:33:12.916Z,101105.53
2022-10-23T12:36:12.976Z,101098.53
2022-10-23T12:38:50.337Z,101103.66
2022-10-23T12:41:27.763Z,101103.59
2022-10-23T12:44:02.696Z,101096.69
2022-10-23T12:46:39.176Z,101087.78
2022-10-23T12:49:21.341Z,101088.84
2022-10-23T12:52:00.060Z,101085.44
2022-10-23T12:54:34.514Z,101084.03
2022-10-23T12:57:24.235Z,101077.09
2022-10-23T13:00:02.659Z,101062.63
2022-10-23T13:02:37.829Z,101062.53
2022-10-23T13:05:17.737Z,101065.03
2022-10-23T13:07:52.657Z,101051.06
2022-10-23T13:10:27.431Z,101047.19
2022-10-23T13:13:05.899Z,101044.16
2022-10-23T13:15:42.997Z,101036.47
2022-10-23T13:18:32.494Z,101032.78
2022-10-23T13:21:08.175Z,101026.31
2022-10-23T13:23:43.816Z,101025.56
2022-10-23T13:26:29.175Z,101031.31
2022-10-23T13:29:08.750Z,101025.28
2022-10-23T13:31:41.834Z,101035.31
2022-10-23T13:34:29.175Z,101035.59
2022-10-23T13:37:23.474Z,101031.97
2022-10-23T13:40:08.077Z,101024.38
2022-10-23T13:42:40.322Z,101025.16
2022-10-23T13:45:21.850Z,101028.47
2022-10-23T13:47:56.393Z,101017.13
2022-10-23T13:50:29.144Z,101014.53
2022-10-23T13:53:06.151Z,101019.25
2022-10-23T13:55:39.733Z,101009.94
2022-10-23T13:58:12.653Z,101020.06
2022-10-23T14:00:46.111Z,101020.28
2022-10-23T14:03:19.111Z,101012.19
2022-10-23T14:05:51.670Z,101008.78
2022-10-23T14:08:26.476Z,100992.31
2022-10-23T14:10:58.870Z,100998.88
2022-10-23T14:13:32.290Z,100994.75
2022-10-23T14:16:04.890Z,100998.31
2022-10-23T14:18:37.511Z,100992.28
2022-10-23T14:21:11.752Z,100998.06
2022-10-23T14:23:48.553Z,100996.13
2022-10-23T14:26:33.133Z,100990.44
2022-10-23T14:29:17.791Z,100993.22
2022-10-23T14:31:53.757Z,100993.88
2022-10-23T14:34:25.778Z,100985.78
2022-10-23T14:37:08.038Z,100975.53
2022-10-23T14:39:48.877Z,100980.78
2022-10-23T14:42:22.152Z,100976.19
2022-10-23T14:44:54.080Z,100977.69
2022-10-23T14:47:26.451Z,100977.91
2022-10-23T14:49:58.849Z,100974.13
2022-10-23T14:52:31.430Z,100970.81
2022-10-23T14:55:06.074Z,100972.13
2022-10-23T14:57:38.250Z,100960.78
2022-10-23T15:00:11.616Z,100965.41
2022-10-23T15:02:44.092Z,100965.22
2022-10-23T15:05:16.269Z,100966.84
2022-10-23T15:07:48.627Z,100962.09
2022-10-23T15:10:23.248Z,100960.63
2022-10-23T15:12:55.426Z,100950.88
2022-10-23T15:15:29.866Z,100949.44
2022-10-23T15:18:06.926Z,100948.47
2022-10-23T15:20:38.828Z,100939.50
2022-10-23T15:23:11.047Z,100934.25
2022-10-23T15:25:45.668Z,100929.22
2022-10-23T15:28:17.870Z,100932.06
2022-10-23T15:30:49.769Z,100925.16
2022-10-23T15:33:22.168Z,100923.88
2022-10-23T15:35:54.770Z,100916.19
2022-10-23T15:38:27.515Z,100914.50
2022-10-23T15:41:23.717Z,100916.88
2022-10-23T15:43:55.850Z,100919.53
2022-10-23T15:46:27.756Z,100914.78
2022-10-23T15:49:00.336Z,100907.88
2022-10-23T15:51:32.598Z,100902.09
2022-10-23T15:54:04.816Z,100897.66
2022-10-23T15:56:39.617Z,100902.31
2022-10-23T15:59:11.955Z,100898.56
2022-10-23T16:01:44.281Z,100897.50
2022-10-23T16:04:33.699Z,100903.75
2022-10-23T16:07:07.457Z,100899.56
2022-10-23T16:09:40.036Z,100897.88
2022-10-23T16:12:14.798Z,100887.00
2022-10-23T16:14:47.078Z,100894.56
2022-10-23T16:17:19.599Z,100879.47
2022-10-23T16:19:51.964Z,100888.50
2022-10-23T16:22:23.778Z,100886.03
2022-10-23T16:24:55.905Z,100889.81
2022-10-23T16:27:30.396Z,100891.03
2022-10-23T16:30:02.537Z,100889.59
2022-10-23T16:32:35.125Z,100878.88
2022-10-23T16:35:09.821Z,100874.28
2022-10-23T16:37:44.494Z,100868.66
2022-10-23T16:40:20.036Z,100872.81
2022-10-23T16:42:54.617Z,100866.16
2022-10-23T16:45:27.177Z,100860.28
2022-10-23T16:47:58.976Z,100864.69
2022-10-23T16:50:31.272Z,100862.78
2022-10-23T16:53:03.324Z,100868.44
2022-10-23T16:55:35.738Z,100859.47
2022-10-23T16:58:29.956Z,100857.34
2022-10-23T17:01:04.156Z,100851.28
2022-10-23T17:03:53.662Z,100845.00
2022-10-23T17:06:29.145Z,100842.72
2022-10-23T17:09:02.483Z,100842.94
2022-10-23T17:11:37.820Z,100830.56
2022-10-23T17:14:17.657Z,100822.00
2022-10-23T17:16:52.123Z,100821.38
2022-10-23T17:19:43.689Z,100817.19
2022-10-23T17:22:17.616Z,100808.63
2022-10-23T17:24:51.627Z,100803.66
2022-10-23T17:27:26.296Z,100798.00
2022-10-23T17:30:01.115Z,100811.34
2022-10-23T17:32:33.264Z,100813.03
2022-10-23T17:35:07.216Z,100804.22
2022-10-23T17:37:39.517Z,100809.69
2022-10-23T17:40:12.612Z,100815.94
2022-10-23T17:43:04.632Z,100805.50
2022-10-23T17:45:40.653Z,100797.13
2022-10-23T17:48:12.934Z,100785.00
2022-10-23T17:50:44.854Z,100793.16
2022-10-23T17:53:26.332Z,100779.59
2022-10-23T17:56:00.893Z,100791.09
2022-10-23T17:58:33.032Z,100795.50
2022-10-23T18:01:10.795Z,100797.56
2022-10-23T18:03:43.272Z,100781.47
2022-10-23T18:06:17.216Z,100783.34
2022-10-23T18:08:49.638Z,100792.13
2022-10-23T18:11:23.435Z,100774.56
2022-10-23T18:13:55.681Z,100776.69
2022-10-23T18:16:30.755Z,100772.25
2022-10-23T18:19:03.379Z,100764.09
2022-10-23T18:21:36.074Z,100760.97
2022-10-23T18:24:08.681Z,100759.09
2022-10-23T18:26:40.773Z,100769.97
2022-10-23T18:29:15.195Z,100763.09
2022-10-23T18:31:50.914Z,100757.88
2022-10-23T18:34:25.334Z,100748.88
2022-10-23T18:36:58.195Z,100753.91
2022-10-23T18:39:30.556Z,100744.28
2022-10-23T18:42:02.315Z,100763.47
2022-10-23T18:44:34.154Z,100755.53
2022-10-23T18:47:09.486Z,100759.09
2022-10-23T18:49:41.454Z,100752.41
2022-10-23T18:52:13.220Z,100749.47
2022-10-23T18:54:45.220Z,100739.47
2022-10-23T18:57:16.893Z,100745.72
2022-10-23T18:59:50.514Z,100744.47
2022-10-23T19:02:24.927Z,100745.53
2022-10-23T19:04:57.220Z,100738.19
2022-10-23T19:07:29.153Z,100730.47
2022-10-23T19:10:00.880Z,100722.94
2022-10-23T19:12:32.594Z,100734.00
2022-10-23T19:15:04.417Z,100735.00
2022-10-23T19:17:39.286Z,100738.38
2022-10-23T19:20:17.293Z,100736.47
2022-10-23T19:22:52.375Z,100726.66
2022-10-23T19:25:28.330Z,100741.91
2022-10-23T19:28:01.738Z,100734.78
2022-10-23T19:30:40.975Z,100726.41
2022-10-23T19:33:15.231Z,100709.06
2022-10-23T19:35:47.214Z,100716.59
2022-10-23T19:38:18.911Z,100714.47
2022-10-23T19:40:51.370Z,100705.94
2022-10-23T19:43:22.850Z,100696.13
2022-10-23T19:45:54.940Z,100698.44
2022-10-23T19:48:29.090Z,100698.00
2022-10-23T19:51:01.090Z,100695.25
2022-10-23T19:53:33.938Z,100698.84
2022-10-23T19:56:07.997Z,100703.66
2022-10-23T19:58:40.064Z,100709.94
2022-10-23T20:01:14.815Z,100713.28
2022-10-23T20:03:50.225Z,100703.44
2022-10-23T20:06:24.528Z,100708.25
2022-10-23T20:08:56.923Z,100715.13
2022-10-23T20:11:30.845Z,100706.16
2022-10-23T20:14:03.370Z,100704.72
2022-10-23T20:16:37.538Z,100710.56
2022-10-23T20:22:10.185Z,100702.63
2022-10-23T20:24:42.526Z,100707.19
2022-10-23T20:27:14.946Z,100704.50
2022-10-23T20:29:46.565Z,100702.16
2022-10-23T20:32:18.907Z,100710.25
2022-10-23T20:34:53.046Z,100700.50
2022-10-23T20:37:24.825Z,100699.41
2022-10-23T20:39:58.248Z,100706.28
2022-10-23T20:42:30.066Z,100696.09
2022-10-23T20:45:01.633Z,100699.88
2022-10-23T20:47:33.545Z,100690.22
2022-10-23T20:50:08.784Z,100698.53
2022-10-23T20:52:40.727Z,100693.28
2022-10-23T20:55:13.205Z,100695.22
2022-10-23T20:57:59.029Z,100685.81
2022-10-23T21:00:30.644Z,100674.44
2022-10-23T21:03:04.384Z,100670.84
2022-10-23T21:05:38.486Z,100676.94
2022-10-23T21:08:10.283Z,100677.09
2022-10-23T21:10:48.507Z,100667.81
2022-10-23T21:13:20.363Z,100665.13
2022-10-23T21:15:51.945Z,100670.41
2022-10-23T21:18:27.361Z,100660.75
2022-10-23T21:21:08.505Z,100657.25
2022-10-23T21:23:41.172Z,100659.44
2022-10-23T21:26:12.989Z,100658.00
2022-10-23T21:28:55.823Z,100664.06
2022-10-23T21:31:32.696Z,100684.06
2022-10-23T21:34:04.856Z,100690.09
2022-10-23T21:36:48.503Z,100695.06
2022-10-23T21:39:31.245Z,100705.75
2022-10-23T21:42:02.864Z,100707.81
2022-10-23T21:44:34.733Z,100710.97
2022-10-23T21:47:06.366Z,100714.28
2022-10-23T21:49:38.288Z,100706.94
2022-10-23T21:52:15.037Z,100709.75
2022-10-23T21:54:49.627Z,100704.91
2022-10-23T21:57:21.226Z,100699.44
2022-10-23T21:59:53.064Z,100692.06
2022-10-23T22:02:24.659Z,100695.84
2022-10-23T22:04:56.605Z,100696.47
2022-10-23T22:07:31.108Z,100699.69
2022-10-23T22:10:03.445Z,100689.16
2022-10-23T22:12:35.464Z,100700.53
2022-10-23T22:15:08.686Z,100691.47
2022-10-23T22:17:40.712Z,100708.13
2022-10-23T22:20:13.546Z,100715.81
2022-10-23T22:22:48.125Z,100721.66
2022-10-23T22:25:20.545Z,100718.59
2022-10-23T22:27:52.604Z,100724.19
2022-10-23T22:30:24.726Z,100728.72
2022-10-23T22:32:56.565Z,100725.78
2022-10-23T22:35:28.865Z,100716.94
2022-10-23T22:38:04.765Z,100726.72
2022-10-23T22:40:45.633Z,100722.50
2022-10-23T22:43:18.411Z,100713.38
2022-10-23T22:45:50.525Z,100720.53
2022-10-23T22:48:22.325Z,100726.09
2022-10-23T22:50:57.065Z,100729.38
2022-10-23T22:53:31.646Z,100722.06
2022-10-23T22:56:03.584Z,100722.91
2022-10-23T22:58:35.125Z,100722.28
2022-10-23T23:01:10.902Z,100721.81
2022-10-23T23:03:42.526Z,100717.53
2022-10-23T23:06:15.185Z,100711.75
2022-10-23T23:08:50.945Z,100709.84
2022-10-23T23:11:24.793Z,100713.69
2022-10-23T23:13:56.490Z,100696.09
2022-10-23T23:16:31.725Z,100693.16
2022-10-23T23:19:05.068Z,100691.06
2022-10-23T23:21:36.945Z,100692.19
2022-10-23T23:24:11.284Z,100690.84
2022-10-23T23:26:43.255Z,100684.75
2022-10-23T23:29:15.787Z,100683.31
2022-10-23T23:32:29.526Z,100664.06
2022-10-23T23:35:02.571Z,100660.41
2022-10-23T23:37:34.645Z,100665.84
2022-10-23T23:40:09.966Z,100662.28
2022-10-23T23:42:42.043Z,100661.78
2022-10-23T23:45:15.134Z,100666.59
2022-10-23T23:47:47.274Z,100662.94
2022-10-23T23:50:19.366Z,100650.94
2022-10-23T23:52:51.205Z,100640.94
2022-10-23T23:55:25.446Z,100641.59
2022-10-23T23:57:57.226Z,100638.69
